Time;durP1;ratioP1;P1;durP2;ratioP2;P2;SDS_P1;SDS_P2;PMS_P1;PMS_P2;Temp;Humidity;BMP_temperature;BMP_pressure;BME280_temperature;BME280_humidity;BME280_pressure;Samples;Min_cycle;Max_cycle;Signal;HPM_P1;HPM_P2
2023/09/14 00:00:28;;;;;;;3.40;1.10;;;13.00;99.90;;;;;;5039467;28;20131;-67
2023/09/14 00:02:54;;;;;;;2.92;1.15;;;13.00;99.90;;;;;;5064919;28;20047;-67
2023/09/14 00:05:22;;;;;;;5.53;1.30;;;13.00;99.90;;;;;;5043312;28;20037;-67
2023/09/14 00:07:48;;;;;;;3.75;1.50;;;13.00;99.90;;;;;;5058187;28;20025;-67
2023/09/14 00:10:18;;;;;;;3.67;1.50;;;13.00;99.90;;;;;;5043212;28;20488;-67
2023/09/14 00:12:44;;;;;;;7.15;1.55;;;13.00;99.90;;;;;;5064044;28;20047;-67
2023/09/14 00:15:10;;;;;;;2.80;1.40;;;13.00;99.90;;;;;;5062012;28;20052;-67
2023/09/14 00:17:35;;;;;;;6.82;1.38;;;13.00;99.90;;;;;;5040262;28;20049;-68
2023/09/14 00:20:01;;;;;;;3.53;1.48;;;13.00;99.90;;;;;;5025832;28;20131;-69
2023/09/14 00:22:27;;;;;;;3.17;1.30;;;13.00;99.90;;;;;;5063864;28;20216;-68
2023/09/14 00:24:52;;;;;;;8.67;1.57;;;13.00;99.90;;;;;;5064673;28;20044;-67
2023/09/14 00:27:24;;;;;;;3.30;1.33;;;13.00;99.90;;;;;;5042117;28;20048;-67
2023/09/14 00:29:52;;;;;;;4.57;1.33;;;12.90;99.90;;;;;;5043059;28;20036;-67
2023/09/14 00:32:18;;;;;;;2.88;1.25;;;12.90;99.90;;;;;;5066875;28;20121;-68
2023/09/14 00:34:43;;;;;;;6.55;1.63;;;12.90;99.90;;;;;;5050467;28;20502;-68
2023/09/14 00:37:09;;;;;;;2.50;1.42;;;12.90;99.90;;;;;;5060329;28;20056;-68
2023/09/14 00:39:35;;;;;;;4.97;1.23;;;12.90;99.90;;;;;;5060689;28;20081;-67
2023/09/14 00:42:03;;;;;;;4.17;2.17;;;12.90;99.90;;;;;;5038752;28;20300;-67
2023/09/14 00:44:28;;;;;;;5.38;1.85;;;12.90;99.90;;;;;;5048338;28;20676;-67
2023/09/14 00:46:54;;;;;;;11.10;1.77;;;12.90;99.90;;;;;;5050892;28;20041;-67
2023/09/14 00:49:20;;;;;;;2.80;1.33;;;12.90;99.90;;;;;;5051983;28;20081;-67
2023/09/14 00:51:48;;;;;;;5.03;1.27;;;13.00;99.90;;;;;;5052601;28;20131;-68
2023/09/14 00:54:14;;;;;;;6.07;1.20;;;12.90;99.90;;;;;;5047885;28;20295;-67
2023/09/14 00:56:40;;;;;;;6.57;1.80;;;12.90;99.90;;;;;;5044850;28;20044;-68
2023/09/14 00:59:07;;;;;;;5.47;1.35;;;12.90;99.90;;;;;;5037574;28;20048;-68
2023/09/14 01:01:36;;;;;;;5.68;1.92;;;12.90;99.90;;;;;;5023673;28;20464;-67
2023/09/14 01:04:05;;;;;;;3.90;1.60;;;12.90;99.90;;;;;;5037811;28;20147;-68
2023/09/14 01:06:33;;;;;;;2.72;1.30;;;12.90;99.90;;;;;;5060290;28;20045;-68
2023/09/14 01:08:59;;;;;;;4.80;1.80;;;12.90;99.90;;;;;;5052647;28;20557;-67
2023/09/14 01:11:24;;;;;;;2.33;1.30;;;12.90;99.90;;;;;;5030847;28;20033;-67
2023/09/14 01:14:30;;;;;;;5.88;1.45;;;12.90;99.90;;;;;;5054006;28;20041;-68
2023/09/14 01:17:07;;;;;;;6.75;1.63;;;12.80;99.90;;;;;;5013670;28;20063;-67
2023/09/14 01:19:50;;;;;;;4.57;1.30;;;12.80;99.90;;;;;;5040538;28;20036;-67
2023/09/14 01:22:30;;;;;;;4.70;1.60;;;12.80;99.90;;;;;;5060593;28;20519;-67
2023/09/14 01:25:06;;;;;;;4.03;1.42;;;12.70;99.90;;;;;;5053737;28;20040;-67
2023/09/14 01:27:32;;;;;;;2.97;1.48;;;12.70;99.90;;;;;;5038613;28;20555;-67
2023/09/14 01:30:00;;;;;;;5.40;1.63;;;12.60;99.90;;;;;;5050406;28;20040;-68
2023/09/14 01:32:36;;;;;;;7.05;1.70;;;12.60;99.90;;;;;;5045192;28;20052;-69
2023/09/14 01:35:05;;;;;;;5.07;1.23;;;12.50;99.90;;;;;;5044389;28;20407;-68
2023/09/14 01:37:33;;;;;;;10.95;2.13;;;12.60;99.90;;;;;;5025112;28;20325;-69
2023/09/14 01:40:01;;;;;;;3.13;1.25;;;12.60;99.90;;;;;;5036757;28;20056;-68
2023/09/14 01:42:28;;;;;;;3.55;1.50;;;12.60;99.90;;;;;;5029149;28;20476;-68
2023/09/14 01:44:54;;;;;;;2.85;1.48;;;12.60;99.90;;;;;;5027037;28;20559;-69
2023/09/14 01:47:20;;;;;;;4.43;1.50;;;12.50;99.90;;;;;;5065624;28;20036;-68
2023/09/14 01:49:46;;;;;;;3.47;1.20;;;12.50;99.90;;;;;;5033091;28;20075;-68
2023/09/14 01:52:12;;;;;;;2.60;1.30;;;12.40;99.90;;;;;;5045856;28;20488;-68
2023/09/14 01:54:37;;;;;;;3.05;1.50;;;12.40;99.90;;;;;;5042218;28;20123;-68
2023/09/14 01:57:03;;;;;;;3.87;1.30;;;12.40;99.90;;;;;;5059434;28;20132;-68
2023/09/14 01:59:29;;;;;;;6.95;2.05;;;12.30;99.90;;;;;;5047796;28;20405;-68
2023/09/14 02:01:58;;;;;;;4.32;1.58;;;12.30;99.90;;;;;;5052028;28;20262;-68
2023/09/14 02:04:23;;;;;;;5.25;1.77;;;12.20;99.90;;;;;;5064321;28;20040;-67
2023/09/14 02:06:49;;;;;;;7.60;1.58;;;12.20;99.90;;;;;;5041020;28;20047;-69
2023/09/14 02:09:15;;;;;;;5.80;2.00;;;12.10;99.90;;;;;;5032509;28;20048;-68
2023/09/14 02:11:41;;;;;;;5.47;1.73;;;12.10;99.90;;;;;;5044412;28;20678;-68
2023/09/14 02:14:09;;;;;;;3.92;1.58;;;12.00;99.90;;;;;;5062244;28;20061;-69
2023/09/14 02:16:37;;;;;;;4.20;1.45;;;12.00;99.90;;;;;;5040561;28;20462;-68
2023/09/14 02:19:03;;;;;;;3.13;1.60;;;11.90;99.90;;;;;;5042085;28;20377;-68
2023/09/14 02:21:31;;;;;;;4.47;1.77;;;11.90;99.90;;;;;;5036739;28;20066;-69
2023/09/14 02:23:57;;;;;;;5.10;1.50;;;11.90;99.90;;;;;;5030130;28;20495;-68
2023/09/14 02:26:23;;;;;;;3.97;1.80;;;11.90;99.90;;;;;;5046357;28;20560;-69
2023/09/14 02:28:51;;;;;;;3.50;1.48;;;11.80;99.90;;;;;;5044728;28;20144;-68
2023/09/14 02:31:20;;;;;;;4.35;1.42;;;11.80;99.90;;;;;;5042658;28;20131;-68
2023/09/14 02:33:46;;;;;;;2.83;1.50;;;11.80;99.90;;;;;;5030241;28;20045;-69
2023/09/14 02:36:11;;;;;;;6.40;2.45;;;11.80;99.90;;;;;;5027138;28;20099;-69
2023/09/14 02:38:37;;;;;;;3.33;1.38;;;11.70;99.90;;;;;;5049620;28;20523;-68
2023/09/14 02:41:03;;;;;;;3.92;1.45;;;11.70;99.90;;;;;;5056437;28;20047;-68
2023/09/14 02:43:31;;;;;;;4.47;1.60;;;11.70;99.90;;;;;;5061607;28;20044;-68
2023/09/14 02:45:57;;;;;;;5.65;1.90;;;11.70;99.90;;;;;;5067734;28;20185;-68
2023/09/14 02:48:23;;;;;;;3.40;1.70;;;11.70;99.90;;;;;;5045088;28;20100;-68
2023/09/14 02:50:48;;;;;;;2.73;1.50;;;11.60;99.90;;;;;;5046739;28;21315;-72
2023/09/14 02:53:14;;;;;;;4.15;1.65;;;11.60;99.90;;;;;;5065264;28;20040;-72
2023/09/14 02:55:40;;;;;;;4.17;1.60;;;11.60;99.90;;;;;;5070072;28;20040;-73
2023/09/14 02:58:08;;;;;;;3.17;1.63;;;11.50;99.90;;;;;;5042248;28;20272;-73
2023/09/14 03:00:33;;;;;;;7.20;1.50;;;11.50;99.90;;;;;;5037691;28;24799;-72
2023/09/14 03:02:59;;;;;;;4.97;2.10;;;11.50;99.90;;;;;;5025356;28;20040;-72
2023/09/14 03:05:25;;;;;;;3.53;1.60;;;11.50;99.90;;;;;;5056741;28;20326;-72
2023/09/14 03:07:51;;;;;;;4.33;1.80;;;11.50;99.90;;;;;;5046996;28;20040;-72
2023/09/14 03:10:16;;;;;;;4.97;1.63;;;11.40;99.90;;;;;;5025540;28;20495;-73
2023/09/14 03:12:44;;;;;;;4.47;2.07;;;11.30;99.90;;;;;;5048906;28;20076;-73
2023/09/14 03:15:10;;;;;;;4.50;1.77;;;11.40;99.90;;;;;;5023849;28;20408;-72
2023/09/14 03:17:36;;;;;;;3.65;1.75;;;11.40;99.90;;;;;;5046285;28;20106;-72
2023/09/14 03:20:06;;;;;;;4.57;1.50;;;11.40;99.90;;;;;;5045125;28;21597;-72
2023/09/14 03:22:32;;;;;;;3.28;1.40;;;11.30;99.90;;;;;;5041540;28;20041;-72
2023/09/14 03:24:57;;;;;;;2.90;1.38;;;11.30;99.90;;;;;;5062800;28;20051;-72
2023/09/14 03:27:23;;;;;;;4.23;1.13;;;11.30;99.90;;;;;;5027034;28;20067;-73
2023/09/14 03:29:49;;;;;;;3.90;1.30;;;11.30;99.90;;;;;;5042301;28;20098;-73
2023/09/14 03:32:14;;;;;;;4.20;1.25;;;11.20;99.90;;;;;;5043237;28;20287;-72
2023/09/14 03:34:43;;;;;;;3.03;1.10;;;11.20;99.90;;;;;;5044682;28;20056;-72
2023/09/14 03:37:09;;;;;;;2.55;1.35;;;11.20;99.90;;;;;;5027702;28;20048;-72
2023/09/14 03:39:35;;;;;;;2.75;1.25;;;11.20;99.90;;;;;;5044557;28;20086;-71
2023/09/14 03:42:03;;;;;;;1.80;1.02;;;11.20;99.90;;;;;;5035406;28;20551;-72
2023/09/14 03:44:29;;;;;;;4.40;1.20;;;11.10;99.90;;;;;;5042956;28;20032;-71
2023/09/14 03:46:55;;;;;;;3.00;1.50;;;11.10;99.90;;;;;;5060023;28;20058;-72
2023/09/14 03:49:21;;;;;;;5.20;1.30;;;11.10;99.90;;;;;;5064979;28;20048;-72
2023/09/14 03:51:46;;;;;;;2.78;0.90;;;11.10;99.90;;;;;;5028956;28;20040;-72
2023/09/14 03:54:13;;;;;;;2.07;1.20;;;11.10;99.90;;;;;;5055911;28;20041;-72
2023/09/14 03:56:39;;;;;;;2.75;1.00;;;11.00;99.90;;;;;;5057844;28;20082;-72
2023/09/14 03:59:07;;;;;;;2.60;0.93;;;11.00;99.90;;;;;;5038842;28;20054;-72
2023/09/14 04:01:33;;;;;;;2.30;1.13;;;11.00;99.90;;;;;;5030006;28;20097;-76
2023/09/14 04:04:05;;;;;;;3.77;1.47;;;11.00;99.90;;;;;;5045571;28;20048;-75
2023/09/14 04:06:31;;;;;;;2.05;1.10;;;10.90;99.90;;;;;;5060233;28;20052;-72
2023/09/14 04:08:56;;;;;;;4.80;1.23;;;10.90;99.90;;;;;;5053590;28;20122;-72
2023/09/14 04:11:22;;;;;;;4.07;1.20;;;10.90;99.90;;;;;;5049541;28;20305;-75
2023/09/14 04:13:48;;;;;;;3.23;1.37;;;10.90;99.90;;;;;;5046380;28;20040;-72
2023/09/14 04:16:14;;;;;;;1.25;0.77;;;10.90;99.90;;;;;;5057381;28;20060;-72
2023/09/14 04:18:40;;;;;;;2.35;1.20;;;10.90;99.90;;;;;;5035346;28;20450;-73
2023/09/14 04:21:06;;;;;;;2.87;1.37;;;10.90;99.90;;;;;;5043021;28;20450;-72
2023/09/14 04:23:32;;;;;;;;;;;10.90;99.90;;;;;;5025332;28;20041;-72
2023/09/14 04:26:00;;;;;;;4.18;1.50;;;10.80;99.90;;;;;;5049418;28;19924;-72
2023/09/14 04:28:25;;;;;;;2.88;1.20;;;10.80;99.90;;;;;;5064404;28;20486;-72
2023/09/14 04:30:54;;;;;;;4.60;1.15;;;10.80;99.90;;;;;;5044581;28;20064;-72
2023/09/14 04:33:20;;;;;;;2.45;1.23;;;10.70;99.90;;;;;;5043096;28;20052;-72
2023/09/14 04:35:46;;;;;;;3.70;1.02;;;10.70;99.90;;;;;;5067925;28;20044;-72
2023/09/14 04:38:12;;;;;;;4.50;1.40;;;10.60;99.90;;;;;;5047452;28;20462;-72
2023/09/14 04:40:40;;;;;;;4.00;1.25;;;10.60;99.90;;;;;;5037836;28;20048;-72
2023/09/14 04:43:05;;;;;;;3.97;1.15;;;10.60;99.90;;;;;;5038461;28;20053;-73
2023/09/14 04:45:34;;;;;;;7.95;1.63;;;10.60;99.90;;;;;;5067670;28;20036;-73
2023/09/14 04:48:00;;;;;;;2.47;1.20;;;10.60;99.90;;;;;;5041041;28;20055;-73
2023/09/14 04:50:26;;;;;;;2.38;1.08;;;10.60;99.90;;;;;;5050216;28;20123;-72
2023/09/14 04:52:52;;;;;;;3.58;1.23;;;10.60;99.90;;;;;;5047991;28;20093;-73
2023/09/14 04:55:20;;;;;;;3.03;1.20;;;10.50;99.90;;;;;;5047658;28;20032;-72
2023/09/14 04:57:46;;;;;;;2.35;1.20;;;10.60;99.90;;;;;;5030133;28;20079;-73
2023/09/14 05:00:15;;;;;;;2.15;1.13;;;10.50;99.90;;;;;;5061859;28;20134;-70
2023/09/14 05:02:41;;;;;;;3.35;1.30;;;10.50;99.90;;;;;;5046994;28;20040;-69
2023/09/14 05:05:10;;;;;;;8.05;1.45;;;10.50;99.90;;;;;;5048690;28;20049;-70
2023/09/14 05:07:36;;;;;;;2.50;1.15;;;10.50;99.90;;;;;;5049470;28;20063;-70
2023/09/14 05:10:02;;;;;;;4.82;1.55;;;10.50;99.90;;;;;;5050812;28;20041;-67
2023/09/14 05:12:28;;;;;;;;;;;10.50;99.90;;;;;;5046858;28;20037;-67
2023/09/14 05:14:54;;;;;;;5.57;1.70;;;10.50;99.90;;;;;;5063846;28;19946;-68
2023/09/14 05:17:20;;;;;;;7.70;1.50;;;10.40;99.90;;;;;;5044928;28;21011;-70
2023/09/14 05:19:48;;;;;;;3.80;1.40;;;10.40;99.90;;;;;;5042068;28;20074;-70
2023/09/14 05:22:14;;;;;;;3.13;1.27;;;10.40;99.90;;;;;;5039209;28;20133;-71
2023/09/14 05:24:40;;;;;;;3.15;1.50;;;10.40;99.90;;;;;;5055973;28;20286;-70
2023/09/14 05:27:06;;;;;;;;;;;10.40;99.90;;;;;;5045875;28;20044;-70
2023/09/14 05:29:32;;;;;;;2.85;1.30;;;10.40;99.90;;;;;;5048730;28;19932;-71
2023/09/14 05:31:58;;;;;;;6.65;1.50;;;10.40;99.90;;;;;;5039810;28;20036;-70
2023/09/14 05:34:24;;;;;;;4.33;1.53;;;10.50;99.90;;;;;;5042196;28;20512;-70
2023/09/14 05:36:52;;;;;;;3.33;1.60;;;10.40;99.90;;;;;;5037914;28;20353;-71
2023/09/14 05:39:18;;;;;;;3.10;1.40;;;10.50;99.90;;;;;;5060386;28;20037;-70
2023/09/14 05:41:45;;;;;;;5.15;1.80;;;10.50;99.90;;;;;;5037111;28;20102;-71
2023/09/14 05:44:10;;;;;;;;;;;10.50;99.90;;;;;;5025821;28;20435;-69
2023/09/14 05:46:37;;;;;;;5.75;1.63;;;10.60;99.90;;;;;;5029062;28;19927;-74
2023/09/14 05:49:03;;;;;;;5.03;1.60;;;10.60;99.90;;;;;;5034629;28;20063;-74
2023/09/14 05:51:29;;;;;;;6.30;1.88;;;10.60;99.90;;;;;;5044068;28;20129;-74
2023/09/14 05:53:57;;;;;;;3.83;1.70;;;10.60;99.90;;;;;;5031754;28;20480;-76
2023/09/14 05:56:23;;;;;;;4.35;1.83;;;10.70;99.90;;;;;;5033780;28;20820;-78
2023/09/14 05:58:51;;;;;;;7.43;2.08;;;10.70;99.90;;;;;;5044328;28;20044;-70
2023/09/14 06:01:17;;;;;;;7.03;1.60;;;10.70;99.90;;;;;;5027336;28;20063;-74
2023/09/14 06:03:43;;;;;;;6.32;2.08;;;10.80;99.90;;;;;;5040145;28;20045;-71
2023/09/14 06:06:09;;;;;;;4.30;1.70;;;10.80;99.90;;;;;;5047345;28;20107;-73
2023/09/14 06:08:40;;;;;;;4.50;1.65;;;10.80;99.90;;;;;;5045246;28;20492;-71
2023/09/14 06:11:09;;;;;;;5.53;2.03;;;10.90;99.90;;;;;;5046380;28;20127;-71
2023/09/14 06:13:34;;;;;;;6.57;1.60;;;10.90;99.90;;;;;;5056100;28;20036;-73
2023/09/14 06:16:00;;;;;;;4.03;1.50;;;11.00;99.90;;;;;;5040582;28;20455;-74
2023/09/14 06:18:26;;;;;;;3.83;1.07;;;11.00;99.90;;;;;;5059511;28;20305;-74
2023/09/14 06:20:52;;;;;;;2.10;1.07;;;11.10;99.90;;;;;;5041193;28;20064;-71
2023/09/14 06:23:17;;;;;;;6.00;1.80;;;11.20;99.90;;;;;;5038788;28;20053;-74
2023/09/14 06:25:46;;;;;;;4.30;1.30;;;11.20;99.90;;;;;;5028807;28;20106;-70
2023/09/14 06:28:12;;;;;;;9.30;2.03;;;11.20;99.90;;;;;;5026159;28;20040;-72
2023/09/14 06:30:38;;;;;;;6.80;1.80;;;11.30;99.90;;;;;;5048098;28;20123;-73
2023/09/14 06:33:05;;;;;;;16.53;3.43;;;11.30;99.90;;;;;;5047385;28;20048;-71
2023/09/14 06:35:33;;;;;;;6.05;1.60;;;11.40;99.90;;;;;;5061391;28;20120;-74
2023/09/14 06:37:59;;;;;;;8.18;1.65;;;11.40;99.90;;;;;;5059732;28;20052;-71
2023/09/14 06:40:24;;;;;;;3.37;1.30;;;11.50;99.90;;;;;;5052008;28;20040;-75
2023/09/14 06:42:50;;;;;;;6.28;1.65;;;11.50;99.90;;;;;;5037839;28;20048;-80
2023/09/14 06:45:16;;;;;;;4.32;1.48;;;11.60;99.90;;;;;;5026037;28;20037;-73
2023/09/14 06:47:44;;;;;;;4.68;1.50;;;11.70;99.90;;;;;;5047712;28;20071;-71
2023/09/14 06:50:12;;;;;;;5.55;1.42;;;11.70;99.90;;;;;;5042799;28;20032;-77
2023/09/14 06:52:38;;;;;;;4.80;1.00;;;11.80;99.90;;;;;;5047248;28;20387;-72
2023/09/14 06:55:04;;;;;;;7.83;1.27;;;11.90;99.90;;;;;;5029728;28;20131;-70
2023/09/14 06:57:32;;;;;;;2.47;1.05;;;12.00;99.90;;;;;;5061517;28;20288;-70
2023/09/14 07:00:00;;;;;;;3.00;0.95;;;12.00;99.90;;;;;;5038481;28;20040;-70
2023/09/14 07:02:27;;;;;;;5.18;1.38;;;12.20;99.90;;;;;;5040602;28;20323;-70
2023/09/14 07:04:53;;;;;;;;;;;12.20;99.90;;;;;;5061667;28;20123;-70
2023/09/14 07:07:19;;;;;;;3.80;0.93;;;12.20;99.90;;;;;;5053731;28;19916;-70
2023/09/14 07:09:45;;;;;;;2.13;0.70;;;12.30;99.90;;;;;;5038931;28;20045;-70
2023/09/14 07:12:10;;;;;;;1.92;0.90;;;12.30;99.90;;;;;;5044125;28;20127;-70
2023/09/14 07:14:36;;;;;;;2.00;0.90;;;12.50;99.90;;;;;;5042610;28;20044;-70
2023/09/14 07:17:02;;;;;;;2.15;0.70;;;12.50;99.90;;;;;;5032822;28;20121;-71
2023/09/14 07:19:29;;;;;;;5.78;1.13;;;12.60;99.90;;;;;;5043704;28;20053;-70
2023/09/14 07:21:55;;;;;;;5.80;1.27;;;12.70;99.90;;;;;;5049493;28;20460;-71
2023/09/14 07:24:24;;;;;;;1.95;0.93;;;12.80;99.90;;;;;;5061248;28;20151;-70
2023/09/14 07:26:49;;;;;;;3.90;1.20;;;12.80;99.90;;;;;;5056014;28;20045;-71
2023/09/14 07:29:15;;;;;;;3.58;1.67;;;12.90;99.90;;;;;;5041380;28;20126;-71
2023/09/14 07:31:41;;;;;;;6.45;1.20;;;13.00;99.90;;;;;;5026764;28;20063;-71
2023/09/14 07:34:07;;;;;;;5.22;1.10;;;13.20;99.90;;;;;;5054044;28;20144;-70
2023/09/14 07:36:33;;;;;;;2.93;0.83;;;13.20;99.90;;;;;;5041219;28;20128;-71
2023/09/14 07:38:59;;;;;;;4.33;0.77;;;13.40;99.90;;;;;;5031730;28;20350;-71
2023/09/14 07:41:26;;;;;;;3.70;0.80;;;13.40;99.90;;;;;;5050380;28;20308;-71
2023/09/14 07:43:52;;;;;;;1.92;1.02;;;13.50;99.90;;;;;;5047378;28;20188;-71
2023/09/14 07:46:17;;;;;;;1.58;0.80;;;13.60;99.90;;;;;;5025052;28;20032;-71
2023/09/14 07:48:43;;;;;;;2.50;0.90;;;13.80;99.90;;;;;;5064899;28;20193;-71
2023/09/14 07:51:09;;;;;;;2.83;0.93;;;13.90;99.90;;;;;;5044960;28;20285;-70
2023/09/14 07:53:34;;;;;;;2.07;0.80;;;14.00;99.90;;;;;;5067105;28;20047;-71
2023/09/14 07:56:00;;;;;;;3.78;1.33;;;14.10;99.90;;;;;;5062208;28;20351;-71
2023/09/14 07:58:26;;;;;;;2.28;0.90;;;14.30;99.90;;;;;;5053597;28;20048;-71
2023/09/14 08:00:51;;;;;;;2.57;0.70;;;14.40;99.90;;;;;;5045163;28;20041;-71
2023/09/14 08:03:17;;;;;;;4.68;0.90;;;14.50;99.90;;;;;;5046429;28;20044;-70
2023/09/14 08:05:44;;;;;;;2.22;0.65;;;14.70;99.90;;;;;;5047183;28;20697;-71
2023/09/14 08:08:10;;;;;;;2.72;1.17;;;14.80;99.90;;;;;;5066311;28;20037;-70
2023/09/14 08:10:36;;;;;;;5.93;0.95;;;14.90;99.90;;;;;;5054646;28;20135;-70
2023/09/14 08:13:02;;;;;;;5.07;1.23;;;15.00;99.90;;;;;;5050476;28;20103;-70
2023/09/14 08:15:28;;;;;;;4.85;0.82;;;15.20;99.90;;;;;;5050761;28;20517;-70
2023/09/14 08:17:54;;;;;;;6.00;1.50;;;15.30;99.90;;;;;;5044194;28;20419;-70
2023/09/14 08:20:20;;;;;;;4.65;1.10;;;15.40;99.90;;;;;;5043382;28;20048;-70
2023/09/14 08:22:46;;;;;;;2.70;0.90;;;15.50;99.90;;;;;;5046756;28;20098;-71
2023/09/14 08:25:13;;;;;;;2.60;0.90;;;15.60;99.90;;;;;;5047200;28;20277;-73
2023/09/14 08:27:40;;;;;;;4.60;1.13;;;15.70;99.90;;;;;;5048536;28;20040;-72
2023/09/14 08:30:10;;;;;;;3.83;1.08;;;15.80;99.90;;;;;;5044443;28;20048;-71
2023/09/14 08:32:36;;;;;;;4.43;1.05;;;15.90;99.90;;;;;;5048129;28;20045;-71
2023/09/14 08:35:24;;;;;;;5.45;0.90;;;16.00;99.90;;;;;;5045823;28;20045;-71
2023/09/14 08:37:52;;;;;;;5.32;1.20;;;16.10;99.90;;;;;;5046521;28;20064;-71
2023/09/14 08:40:19;;;;;;;6.13;1.02;;;16.20;99.90;;;;;;5048918;28;20047;-71
2023/09/14 08:42:47;;;;;;;;;;;16.30;99.90;;;;;;5048656;28;20542;-72
2023/09/14 08:45:15;;;;;;;6.32;0.88;;;16.30;99.90;;;;;;5046371;28;19973;-71
2023/09/14 08:47:43;;;;;;;5.18;1.20;;;16.40;99.90;;;;;;5052746;28;20090;-74
2023/09/14 08:50:13;;;;;;;6.57;1.15;;;16.40;99.90;;;;;;5043087;28;20076;-70
2023/09/14 08:52:40;;;;;;;4.82;1.00;;;16.40;99.90;;;;;;5047908;28;20051;-71
2023/09/14 08:55:08;;;;;;;7.32;1.10;;;16.40;99.90;;;;;;5050929;28;20044;-76
2023/09/14 08:57:36;;;;;;;4.90;1.20;;;16.50;99.90;;;;;;5064387;28;20036;-69
2023/09/14 09:00:08;;;;;;;6.05;1.58;;;16.50;99.90;;;;;;5052003;28;20127;-69
2023/09/14 09:02:35;;;;;;;4.20;1.00;;;16.60;99.90;;;;;;5034085;28;20033;-69
2023/09/14 09:05:02;;;;;;;4.57;0.85;;;16.70;99.90;;;;;;5050613;28;20044;-70
2023/09/14 09:07:28;;;;;;;6.63;1.52;;;16.80;99.90;;;;;;5046100;28;20033;-70
2023/09/14 09:09:54;;;;;;;;;;;17.00;99.90;;;;;;5054492;28;20044;-69
2023/09/14 09:12:19;;;;;;;4.60;1.08;;;17.10;99.90;;;;;;5068378;28;19931;-69
2023/09/14 09:14:47;;;;;;;5.88;1.13;;;17.20;99.90;;;;;;5050877;28;20313;-69
2023/09/14 09:17:12;;;;;;;5.55;1.38;;;17.20;99.90;;;;;;5062120;28;20048;-70
2023/09/14 09:19:56;;;;;;;4.85;0.90;;;17.30;99.90;;;;;;5046831;28;20040;-69
2023/09/14 09:22:22;;;;;;;2.47;1.00;;;17.40;99.90;;;;;;5049373;28;20217;-70
2023/09/14 09:24:49;;;;;;;5.82;0.90;;;17.50;99.90;;;;;;5046796;28;20057;-70
2023/09/14 09:27:25;;;;;;;5.05;0.93;;;17.50;99.90;;;;;;5006612;28;20053;-70
2023/09/14 09:29:51;;;;;;;4.90;1.20;;;17.50;99.90;;;;;;5047703;28;20043;-70
2023/09/14 09:32:21;;;;;;;3.03;1.27;;;17.60;99.90;;;;;;5049309;28;20768;-69
2023/09/14 09:34:47;;;;;;;4.15;1.17;;;17.70;99.90;;;;;;5059289;28;20108;-69
2023/09/14 09:37:13;;;;;;;3.33;0.98;;;17.70;99.90;;;;;;5049214;28;20120;-70
2023/09/14 09:39:39;;;;;;;4.07;0.90;;;17.80;99.90;;;;;;5069882;28;20128;-69
2023/09/14 09:42:05;;;;;;;3.47;1.02;;;17.80;99.90;;;;;;5056449;28;20151;-71
2023/09/14 09:44:31;;;;;;;5.13;1.10;;;17.80;99.90;;;;;;5045175;28;20118;-70
2023/09/14 09:46:57;;;;;;;3.75;1.40;;;17.90;99.90;;;;;;5072607;28;20041;-70
2023/09/14 09:49:24;;;;;;;;;;;18.00;99.90;;;;;;5064434;28;20055;-69
2023/09/14 09:51:50;;;;;;;3.83;1.10;;;18.00;99.90;;;;;;5071096;28;19989;-70
2023/09/14 09:54:21;;;;;;;4.43;1.00;;;18.10;99.90;;;;;;5046920;28;20096;-70
2023/09/14 09:56:46;;;;;;;5.18;0.90;;;18.10;99.90;;;;;;5049325;28;20209;-70
2023/09/14 09:59:14;;;;;;;7.80;1.52;;;18.20;99.90;;;;;;5043290;28;20176;-71
2023/09/14 10:01:43;;;;;;;9.85;1.10;;;18.20;99.90;;;;;;5053343;28;20051;-70
2023/09/14 10:04:10;;;;;;;6.05;1.05;;;18.30;99.90;;;;;;5050962;28;20116;-69
2023/09/14 10:06:40;;;;;;;4.68;1.35;;;18.40;99.90;;;;;;5046913;28;20214;-69
2023/09/14 10:09:12;;;;;;;8.43;1.17;;;18.40;99.90;;;;;;5065796;28;20411;-70
2023/09/14 10:11:39;;;;;;;3.97;1.13;;;18.50;99.90;;;;;;5052621;28;20053;-72
2023/09/14 10:14:05;;;;;;;15.45;1.30;;;18.50;99.90;;;;;;5053170;28;20072;-73
2023/09/14 10:16:34;;;;;;;;;;;18.50;99.90;;;;;;5052451;28;20084;-73
2023/09/14 10:19:01;;;;;;;4.68;1.45;;;18.50;99.90;;;;;;5048328;28;19943;-73
2023/09/14 10:21:27;;;;;;;4.47;1.30;;;18.60;99.90;;;;;;5044134;28;20044;-73
2023/09/14 10:23:54;;;;;;;7.20;1.45;;;18.60;99.90;;;;;;5074448;28;20086;-73
2023/09/14 10:26:20;;;;;;;4.45;1.48;;;18.60;99.90;;;;;;5068545;28;20044;-73
2023/09/14 10:28:46;;;;;;;1.88;0.88;;;18.70;99.90;;;;;;5068648;28;20059;-73
2023/09/14 10:31:14;;;;;;;4.57;1.10;;;18.80;99.90;;;;;;5051254;28;20048;-73
2023/09/14 10:33:48;;;;;;;1.70;0.68;;;18.80;99.90;;;;;;5053880;28;20044;-73
2023/09/14 10:36:15;;;;;;;6.35;1.17;;;18.90;99.90;;;;;;5055129;28;20040;-73
2023/09/14 10:38:47;;;;;;;5.03;1.05;;;19.00;99.90;;;;;;5030925;28;20081;-73
2023/09/14 10:41:14;;;;;;;3.97;1.02;;;19.00;99.90;;;;;;5048010;28;20119;-72
2023/09/14 10:43:41;;;;;;;2.92;0.88;;;18.90;99.90;;;;;;5048636;28;20044;-72
2023/09/14 10:46:15;;;;;;;4.30;1.10;;;18.80;99.90;;;;;;5046340;28;20124;-73
2023/09/14 10:48:42;;;;;;;2.72;1.00;;;18.70;99.90;;;;;;5044333;28;20036;-73
2023/09/14 10:51:11;;;;;;;4.57;1.48;;;18.60;99.90;;;;;;5047237;28;20457;-73
2023/09/14 10:53:40;;;;;;;6.68;1.17;;;18.60;99.90;;;;;;5030830;28;20032;-73
2023/09/14 10:56:18;;;;;;;13.43;1.38;;;18.70;99.90;;;;;;5046571;28;20047;-73
2023/09/14 10:58:44;;;;;;;9.00;2.10;;;18.80;99.90;;;;;;5047814;28;20040;-73
2023/09/14 11:01:11;;;;;;;5.47;1.20;;;18.90;99.90;;;;;;5047684;28;20427;-73
2023/09/14 11:04:15;;;;;;;3.67;0.90;;;18.90;99.90;;;;;;5045747;28;20067;-73
2023/09/14 11:06:46;;;;;;;10.20;1.40;;;19.10;99.90;;;;;;5035238;28;20044;-70
2023/09/14 11:09:15;;;;;;;3.53;0.82;;;19.10;99.90;;;;;;5049730;28;20086;-70
2023/09/14 11:11:46;;;;;;;4.40;1.38;;;19.10;99.90;;;;;;5030237;28;20150;-70
2023/09/14 11:14:13;;;;;;;5.03;1.50;;;18.90;99.90;;;;;;5063753;28;20044;-72
2023/09/14 11:16:52;;;;;;;7.20;1.17;;;18.70;99.90;;;;;;5067193;28;20067;-74
2023/09/14 11:19:30;;;;;;;8.07;1.50;;;18.70;99.90;;;;;;5064704;28;20090;-70
2023/09/14 11:22:05;;;;;;;4.32;1.20;;;18.50;99.90;;;;;;5044176;28;20039;-70
2023/09/14 11:24:36;;;;;;;6.15;1.13;;;18.50;99.90;;;;;;5030364;28;20043;-70
2023/09/14 11:27:01;;;;;;;4.93;1.33;;;18.50;99.90;;;;;;5051098;28;20045;-69
2023/09/14 11:29:30;;;;;;;4.60;1.30;;;18.50;99.90;;;;;;5044782;28;20182;-74
2023/09/14 11:32:03;;;;;;;4.97;1.15;;;18.40;99.90;;;;;;5043923;28;20044;-70
2023/09/14 11:34:32;;;;;;;6.43;1.15;;;18.40;99.90;;;;;;5043953;28;20534;-71
2023/09/14 11:37:02;;;;;;;6.32;1.58;;;18.40;99.90;;;;;;5047338;28;20044;-70
2023/09/14 11:39:30;;;;;;;7.63;1.38;;;18.30;99.90;;;;;;5058624;28;20492;-71
2023/09/14 11:42:04;;;;;;;4.25;1.33;;;18.30;99.90;;;;;;5045969;28;20170;-70
2023/09/14 11:44:31;;;;;;;4.05;1.05;;;18.30;99.90;;;;;;5030796;28;20134;-70
2023/09/14 11:47:02;;;;;;;4.05;1.20;;;18.50;99.90;;;;;;5029474;28;20083;-70
2023/09/14 11:49:31;;;;;;;3.95;1.52;;;18.80;99.90;;;;;;5045765;28;20453;-70
2023/09/14 11:51:57;;;;;;;4.75;1.30;;;19.00;99.90;;;;;;5046702;28;20090;-71
2023/09/14 11:54:30;;;;;;;6.40;1.80;;;19.20;99.90;;;;;;5041726;28;20059;-70
2023/09/14 11:57:03;;;;;;;3.15;1.30;;;19.40;99.90;;;;;;5029630;28;20515;-70
2023/09/14 11:59:32;;;;;;;5.00;1.45;;;19.60;99.90;;;;;;5060999;28;20499;-70
2023/09/14 12:02:00;;;;;;;6.60;1.63;;;19.80;99.90;;;;;;5064701;28;20036;-71
2023/09/14 12:04:27;;;;;;;3.75;1.58;;;19.80;99.90;;;;;;5029355;28;20043;-71
2023/09/14 12:06:58;;;;;;;4.35;1.52;;;19.80;99.90;;;;;;5043793;28;20052;-71
2023/09/14 12:09:37;;;;;;;4.57;1.48;;;19.90;99.90;;;;;;5046290;28;20044;-70
2023/09/14 12:12:03;;;;;;;5.95;1.63;;;20.00;99.90;;;;;;5041088;28;20480;-70
2023/09/14 12:14:57;;;;;;;;;;;20.20;99.90;;;;;;5046989;28;20032;-71
2023/09/14 12:17:24;;;;;;;4.45;1.48;;;20.30;99.90;;;;;;5039161;28;19967;-70
2023/09/14 12:19:53;;;;;;;6.18;1.20;;;20.50;99.90;;;;;;5060796;28;20153;-71
2023/09/14 12:22:20;;;;;;;4.80;1.20;;;20.60;99.90;;;;;;5049031;28;20090;-71
2023/09/14 12:24:47;;;;;;;3.97;1.65;;;20.70;99.90;;;;;;5033793;28;20051;-70
2023/09/14 12:27:13;;;;;;;5.40;1.75;;;20.80;99.90;;;;;;5048869;28;20419;-70
2023/09/14 12:29:40;;;;;;;;;;;21.00;99.90;;;;;;5065749;28;20487;-70
2023/09/14 12:32:05;;;;;;;6.75;1.25;;;20.90;99.90;;;;;;5050048;28;19965;-70
2023/09/14 12:34:32;;;;;;;3.03;1.00;;;20.70;99.90;;;;;;5048103;28;20040;-70
2023/09/14 12:37:00;;;;;;;4.50;1.27;;;20.60;99.90;;;;;;5047904;28;20511;-71
2023/09/14 12:39:25;;;;;;;2.80;1.40;;;20.60;99.90;;;;;;5067401;28;20071;-71
2023/09/14 12:41:53;;;;;;;6.25;1.88;;;20.60;99.90;;;;;;5053716;28;20040;-70
2023/09/14 12:44:23;;;;;;;4.45;1.50;;;20.50;99.90;;;;;;5071857;28;20037;-71
2023/09/14 12:46:51;;;;;;;5.78;1.83;;;20.30;99.90;;;;;;5046912;28;20126;-71
2023/09/14 12:49:17;;;;;;;4.93;1.40;;;20.40;99.90;;;;;;5051546;28;20444;-70
2023/09/14 12:51:51;;;;;;;5.03;1.73;;;20.40;99.90;;;;;;5066931;28;20384;-71